Time;durP1;ratioP1;P1;durP2;ratioP2;P2;SDS_P1;SDS_P2;PMS_P1;PMS_P2;Temp;Humidity;BMP_temperature;BMP_pressure;BME280_temperature;BME280_humidity;BME280_pressure;Samples;Min_cycle;Max_cycle;Signal;HPM_P1;HPM_P2
2021/10/25 00:02:01;;;;;;;70.07;31.80;;;;;;;2.46;66.26;99735.34;5059377;28;20527;-82
2021/10/25 00:04:26;;;;;;;75.32;33.03;;;;;;;2.46;66.09;99732.63;5062103;28;20036;-81
2021/10/25 00:06:52;;;;;;;72.00;30.92;;;;;;;2.45;66.63;99739.91;5082787;28;20016;-82
2021/10/25 00:09:17;;;;;;;69.90;29.38;;;;;;;2.46;66.12;99738.06;5085710;28;20525;-82
2021/10/25 00:11:43;;;;;;;75.20;31.67;;;;;;;2.44;66.77;99732.84;5092139;28;20062;-82
2021/10/25 00:14:10;;;;;;;76.95;32.33;;;;;;;2.45;66.07;99728.25;5088625;28;20043;-81
2021/10/25 00:16:36;;;;;;;73.43;33.97;;;;;;;2.45;66.56;99728.25;5085170;28;20024;-81
2021/10/25 00:19:02;;;;;;;71.72;32.42;;;;;;;2.46;66.59;99721.81;5077189;28;20522;-81
2021/10/25 00:21:27;;;;;;;82.38;34.10;;;;;;;2.46;66.63;99721.81;5078973;28;20025;-80
2021/10/25 00:23:53;;;;;;;75.20;33.45;;;;;;;2.44;66.84;99723.88;5081216;28;20087;-79
2021/10/25 00:26:18;;;;;;;70.68;31.35;;;;;;;2.43;66.15;99727.63;5083971;28;20555;-80
2021/10/25 00:28:43;;;;;;;73.45;31.58;;;;;;;2.32;66.07;99721.81;5087680;28;20032;-80
2021/10/25 00:31:09;;;;;;;64.97;30.48;;;;;;;2.21;66.05;99725.19;5064290;28;20571;-80
2021/10/25 00:33:34;;;;;;;65.38;29.40;;;;;;;2.13;66.44;99718.09;5055219;28;20020;-81
2021/10/25 00:36:00;;;;;;;72.25;31.90;;;;;;;2.06;66.52;99715.41;5075528;28;20090;-81
2021/10/25 00:38:25;;;;;;;68.05;31.23;;;;;;;2.07;66.54;99719.78;5077356;28;20031;-82
2021/10/25 00:40:51;;;;;;;66.80;30.02;;;;;;;2.07;66.30;99730.59;5081393;28;20020;-82
2021/10/25 00:43:17;;;;;;;75.22;33.42;;;;;;;2.06;67.04;99723.53;5084985;28;20103;-83
2021/10/25 00:45:42;;;;;;;65.53;30.65;;;;;;;2.07;67.19;99714.38;5090263;28;20052;-83
2021/10/25 00:48:08;;;;;;;66.90;31.17;;;;;;;2.14;67.43;99716.22;5087171;28;20443;-81
2021/10/25 00:50:33;;;;;;;67.25;29.85;;;;;;;2.19;67.98;99711.03;5072961;28;20012;-82
2021/10/25 00:52:59;;;;;;;79.82;34.50;;;;;;;2.21;67.70;99709.75;5073636;28;20105;-81
2021/10/25 00:55:24;;;;;;;69.10;32.03;;;;;;;2.26;68.00;99711.81;5076985;28;20036;-83
2021/10/25 00:57:50;;;;;;;74.25;32.90;;;;;;;2.27;67.34;99704.56;5082473;28;20020;-83
2021/10/25 01:00:16;;;;;;;77.45;34.92;;;;;;;2.29;67.59;99711.41;5083709;28;20029;-82
2021/10/25 01:02:42;;;;;;;81.32;34.60;;;;;;;2.30;67.31;99694.13;5098351;28;20024;-83
2021/10/25 01:05:09;;;;;;;73.65;32.53;;;;;;;2.32;67.29;99697.44;5102483;28;20028;-82
2021/10/25 01:07:35;;;;;;;73.85;33.40;;;;;;;2.33;67.66;99692.88;5088769;28;20048;-82
2021/10/25 01:10:04;;;;;;;62.53;31.05;;;;;;;2.32;66.98;99696.63;5086455;28;20063;-81
2021/10/25 01:12:31;;;;;;;74.30;32.07;;;;;;;2.31;67.61;99692.25;5111064;28;20027;-82
2021/10/25 01:14:57;;;;;;;65.95;31.55;;;;;;;2.25;67.04;99687.69;5068549;28;20353;-82
2021/10/25 01:17:23;;;;;;;75.38;31.95;;;;;;;2.19;67.32;99694.78;5091062;28;20040;-81
2021/10/25 01:19:55;;;;;;;70.90;33.80;;;;;;;2.08;66.92;99688.97;5086136;28;20016;-82
2021/10/25 01:22:22;;;;;;;69.70;31.23;;;;;;;2.07;67.08;99691.88;5088557;28;20483;-82
2021/10/25 01:24:49;;;;;;;71.10;33.10;;;;;;;2.05;67.66;99692.09;5091978;28;20024;-82
2021/10/25 01:27:14;;;;;;;71.90;31.15;;;;;;;2.03;66.89;99691.47;5107953;28;20118;-83
2021/10/25 01:29:40;;;;;;;68.53;31.67;;;;;;;2.00;67.36;99686.47;5106717;28;20084;-81
2021/10/25 01:32:05;;;;;;;69.20;32.10;;;;;;;2.00;67.90;99681.06;5086382;28;20114;-82
2021/10/25 01:34:30;;;;;;;73.10;32.35;;;;;;;2.02;67.76;99680.88;5085456;28;20035;-81
2021/10/25 01:36:56;;;;;;;65.32;29.83;;;;;;;2.06;67.88;99677.50;5092829;28;20028;-82
2021/10/25 01:39:22;;;;;;;60.65;28.33;;;;;;;2.02;67.42;99681.69;5115194;28;20056;-82
2021/10/25 01:41:47;;;;;;;71.35;32.03;;;;;;;1.97;66.93;99680.66;5082886;28;20522;-82
2021/10/25 01:44:14;;;;;;;72.90;32.15;;;;;;;1.91;67.56;99677.75;5099446;28;20369;-82
2021/10/25 01:46:43;;;;;;;67.53;30.80;;;;;;;1.89;66.91;99678.97;5094749;28;20479;-82
2021/10/25 01:49:08;;;;;;;65.05;30.75;;;;;;;1.86;67.69;99676.69;5091073;28;20064;-82
2021/10/25 01:51:35;;;;;;;64.53;29.85;;;;;;;1.82;67.23;99672.75;5092943;28;20105;-82
2021/10/25 01:54:02;;;;;;;62.92;29.95;;;;;;;1.81;67.40;99669.22;5092735;28;20031;-81
2021/10/25 01:56:29;;;;;;;60.67;28.55;;;;;;;1.86;67.41;99663.16;5090634;28;20040;-81
2021/10/25 01:58:54;;;;;;;68.95;31.13;;;;;;;1.88;67.41;99666.50;5094466;28;20027;-81
2021/10/25 02:01:21;;;;;;;70.20;32.03;;;;;;;1.92;67.58;99656.91;5091096;28;20017;-82
2021/10/25 02:03:47;;;;;;;60.47;29.92;;;;;;;1.94;67.54;99654.84;5094146;28;20048;-80
2021/10/25 02:06:12;;;;;;;70.35;31.30;;;;;;;1.92;67.98;99651.50;5094555;28;20056;-80
2021/10/25 02:08:38;;;;;;;70.25;33.15;;;;;;;1.93;67.43;99651.31;5091931;28;20098;-81
2021/10/25 02:11:03;;;;;;;70.25;32.60;;;;;;;1.97;68.16;99650.91;5090743;28;20024;-81
2021/10/25 02:13:29;;;;;;;75.82;34.30;;;;;;;1.96;67.42;99646.53;5088635;28;20035;-81
2021/10/25 02:15:54;;;;;;;70.40;33.67;;;;;;;1.93;67.99;99640.50;5094071;28;20028;-81
2021/10/25 02:18:20;;;;;;;74.97;33.97;;;;;;;1.91;67.88;99642.56;5090697;28;20388;-80
2021/10/25 02:20:46;;;;;;;75.65;35.45;;;;;;;1.89;67.96;99641.09;5093161;28;20054;-82
2021/10/25 02:23:12;;;;;;;63.50;30.90;;;;;;;1.88;68.24;99634.88;5106155;28;20028;-81
2021/10/25 02:25:39;;;;;;;71.78;34.25;;;;;;;1.84;67.49;99636.34;5104472;28;20036;-81
2021/10/25 02:28:05;;;;;;;70.93;32.97;;;;;;;1.83;68.18;99639.25;5092708;28;20070;-80
2021/10/25 02:30:31;;;;;;;64.53;31.83;;;;;;;1.72;67.15;99633.44;5093808;28;20043;-79
2021/10/25 02:32:57;;;;;;;66.45;32.70;;;;;;;1.64;66.97;99633.63;5091134;28;20032;-81
2021/10/25 02:35:22;;;;;;;67.80;31.73;;;;;;;1.58;67.54;99634.47;5093050;28;20402;-80
2021/10/25 02:37:48;;;;;;;66.55;31.58;;;;;;;1.49;66.95;99629.25;5075926;28;20062;-80
2021/10/25 02:40:14;;;;;;;67.25;31.75;;;;;;;1.43;67.03;99630.09;5077926;28;20088;-82
2021/10/25 02:42:40;;;;;;;65.70;29.27;;;;;;;1.39;67.57;99636.97;5071928;28;20042;-82
2021/10/25 02:45:05;;;;;;;65.97;31.73;;;;;;;1.34;67.21;99634.06;5092845;28;20066;-82
2021/10/25 02:47:31;;;;;;;65.63;31.40;;;;;;;1.33;67.72;99627.00;5093367;28;20028;-81
2021/10/25 02:49:58;;;;;;;64.38;30.80;;;;;;;1.29;67.29;99626.53;5093645;28;20012;-81
2021/10/25 02:52:23;;;;;;;67.28;30.48;;;;;;;1.25;67.79;99621.78;5087640;28;20061;-82
2021/10/25 02:54:49;;;;;;;66.35;31.63;;;;;;;1.22;67.36;99614.94;5092133;28;20065;-82
2021/10/25 02:57:16;;;;;;;70.18;31.80;;;;;;;1.25;67.55;99616.38;5093577;28;20078;-82
2021/10/25 02:59:42;;;;;;;65.78;29.02;;;;;;;1.28;67.43;99613.25;5074225;28;20107;-82
2021/10/25 03:02:08;;;;;;;75.15;34.75;;;;;;;1.28;67.65;99613.25;5072886;28;20031;-82
2021/10/25 03:04:33;;;;;;;70.00;33.15;;;;;;;1.30;67.84;99609.28;5091168;28;20024;-82
2021/10/25 03:06:59;;;;;;;89.63;40.38;;;;;;;1.35;68.29;99603.28;5088805;28;20069;-81
2021/10/25 03:09:24;;;;;;;78.22;37.42;;;;;;;1.38;67.72;99608.28;5099243;28;20448;-80
2021/10/25 03:11:50;;;;;;;75.57;36.58;;;;;;;1.40;67.58;99602.66;5112379;28;20032;-80
2021/10/25 03:14:15;;;;;;;73.07;36.33;;;;;;;1.38;67.85;99599.31;5088228;28;20024;-80
2021/10/25 03:16:41;;;;;;;65.20;32.63;;;;;;;1.35;67.74;99603.28;5086788;28;20448;-81
2021/10/25 03:19:06;;;;;;;74.93;34.35;;;;;;;1.30;67.32;99584.16;5091660;28;20023;-81
2021/10/25 03:21:33;;;;;;;67.72;32.55;;;;;;;1.24;67.93;99591.19;5093137;28;20111;-81
2021/10/25 03:23:59;;;;;;;80.00;37.55;;;;;;;1.21;67.93;99590.78;5091858;28;20361;-81
2021/10/25 03:26:25;;;;;;;73.40;37.38;;;;;;;1.23;68.11;99592.22;5107485;28;20063;-81
2021/10/25 03:28:51;;;;;;;70.00;33.80;;;;;;;1.21;67.82;99586.25;5091591;28;20034;-81
2021/10/25 03:31:19;;;;;;;72.75;35.78;;;;;;;1.13;67.57;99584.53;5091488;28;20016;-81
2021/10/25 03:33:46;;;;;;;68.95;34.15;;;;;;;1.07;67.54;99590.78;5085811;28;20016;-81
2021/10/25 03:36:13;;;;;;;73.28;34.03;;;;;;;1.03;67.74;99586.81;5110346;28;20130;-82
2021/10/25 03:38:39;;;;;;;62.35;32.10;;;;;;;0.99;67.48;99588.28;5093135;28;20039;-80
2021/10/25 03:41:17;;;;;;;69.22;33.33;;;;;;;0.93;67.44;99584.53;5090409;28;20028;-80
2021/10/25 03:43:49;;;;;;;63.92;31.58;;;;;;;0.84;67.75;99574.94;5087535;28;20073;-80
2021/10/25 03:49:13;;;;;;;68.35;34.53;;;;;;;0.71;67.37;99589.25;5092957;28;20047;-80
2021/10/25 03:51:29;;;;;;;71.30;36.65;;;;;;;0.70;67.60;99587.59;5100007;28;20832;-81
2021/10/25 03:54:20;;;;;;;74.22;33.17;;;;;;;0.68;67.42;99577.00;5087774;28;20472;-81
2021/10/25 04:27:12;;;;;;;102.60;43.08;;;;;;;0.46;68.07;99537.66;5101775;28;20053;-80
2021/10/25 04:29:03;;;;;;;98.40;42.38;;;;;;;0.47;67.94;99528.53;5079103;28;20039;-81
2021/10/25 04:31:29;;;;;;;98.55;43.97;;;;;;;0.49;67.34;99526.47;5084729;28;20092;-82
2021/10/25 04:33:54;;;;;;;93.30;42.55;;;;;;;0.52;68.23;99532.31;5085580;28;20107;-82
2021/10/25 04:36:19;;;;;;;104.90;46.03;;;;;;;0.52;68.10;99532.31;5099351;28;20403;-81
2021/10/25 04:38:45;;;;;;;91.65;42.80;;;;;;;0.56;68.43;99538.13;5103824;28;20028;-82
2021/10/25 04:41:10;;;;;;;95.22;40.95;;;;;;;0.59;68.45;99535.88;5089127;28;21528;-81
2021/10/25 04:43:39;;;;;;;107.78;46.88;;;;;;;0.61;68.33;99541.03;5087258;28;20032;-81
2021/10/25 04:46:05;;;;;;;94.28;41.65;;;;;;;0.61;67.91;99527.56;5071950;28;20411;-81
2021/10/25 04:48:30;;;;;;;97.18;40.95;;;;;;;0.64;68.04;99531.69;5090246;28;20027;-81
2021/10/25 04:50:55;;;;;;;95.13;42.30;;;;;;;0.64;68.29;99529.84;5072990;28;20028;-81
2021/10/25 04:53:21;;;;;;;101.68;46.00;;;;;;;0.69;68.25;99529.22;5097234;28;20064;-81
2021/10/25 04:55:46;;;;;;;86.40;38.17;;;;;;;0.72;68.11;99524.25;5092244;28;20032;-81
2021/10/25 04:58:12;;;;;;;81.07;35.63;;;;;;;0.68;68.48;99520.28;5072935;28;20060;-82
2021/10/25 05:00:37;;;;;;;91.53;37.95;;;;;;;0.65;67.82;99525.25;5084495;28;20118;-81
2021/10/25 05:03:06;;;;;;;77.15;36.17;;;;;;;0.60;68.22;99531.28;5081453;28;20055;-81
2021/10/25 05:05:32;;;;;;;91.55;40.75;;;;;;;0.61;68.16;99527.56;5092639;28;20437;-81
2021/10/25 05:07:59;;;;;;;90.78;38.45;;;;;;;0.61;68.34;99530.25;5084901;28;20137;-81
2021/10/25 05:10:24;;;;;;;96.20;39.55;;;;;;;0.62;68.50;99521.13;5090811;28;20051;-82
2021/10/25 05:12:50;;;;;;;79.68;34.42;;;;;;;0.69;68.17;99529.22;5086159;28;20468;-82
2021/10/25 05:15:16;;;;;;;75.80;33.58;;;;;;;0.71;68.33;99527.13;5076883;28;20030;-82
2021/10/25 05:17:41;;;;;;;95.45;39.60;;;;;;;0.75;68.89;99523.00;5096672;28;20031;-82
2021/10/25 05:20:08;;;;;;;102.88;44.28;;;;;;;0.80;68.75;99523.22;5089528;28;20090;-81
2021/10/25 05:22:33;;;;;;;97.88;41.38;;;;;;;0.84;68.53;99516.38;5087683;28;20036;-78
2021/10/25 05:24:59;;;;;;;89.80;39.95;;;;;;;0.83;68.30;99516.56;5086457;28;20039;-78
2021/10/25 05:27:25;;;;;;;99.88;40.85;;;;;;;0.85;68.20;99518.03;5092789;28;20036;-78
2021/10/25 05:29:50;;;;;;;81.07;38.03;;;;;;;0.88;68.60;99523.03;5092938;28;20036;-78
2021/10/25 05:32:17;;;;;;;88.28;39.83;;;;;;;0.88;68.62;99514.91;5085181;28;20452;-78
2021/10/25 05:34:43;;;;;;;96.20;44.60;;;;;;;0.91;68.12;99518.25;5090486;28;20047;-79
2021/10/25 05:37:08;;;;;;;87.25;42.22;;;;;;;0.96;68.59;99529.28;5090105;28;20497;-77
2021/10/25 05:39:34;;;;;;;76.05;38.97;;;;;;;0.95;68.45;99524.91;5090673;28;20025;-79
2021/10/25 05:42:02;;;;;;;80.90;40.75;;;;;;;0.94;68.28;99531.34;5092400;28;20107;-79
2021/10/25 05:44:29;;;;;;;85.75;42.30;;;;;;;0.94;68.36;99524.06;5081707;28;20059;-80
2021/10/25 05:46:54;;;;;;;83.18;38.78;;;;;;;0.96;68.45;99526.56;5085026;28;20024;-80
2021/10/25 05:49:20;;;;;;;82.85;40.38;;;;;;;1.01;68.86;99527.59;5088732;28;20493;-80
2021/10/25 05:51:45;;;;;;;76.28;38.85;;;;;;;1.07;68.52;99525.94;5070166;28;20069;-81
2021/10/25 05:54:11;;;;;;;83.60;42.15;;;;;;;1.11;68.39;99520.97;5086820;28;20399;-80
2021/10/25 05:56:36;;;;;;;98.55;45.97;;;;;;;1.18;68.24;99517.19;5085185;28;20074;-77
2021/10/25 05:59:03;;;;;;;98.15;46.20;;;;;;;1.25;68.61;99524.47;5089382;28;20395;-75
2021/10/25 06:01:34;;;;;;;129.68;58.38;;;;;;;1.31;68.63;99526.34;5091209;28;20437;-74
2021/10/25 06:04:05;;;;;;;88.40;43.42;;;;;;;1.35;68.83;99522.19;5088811;28;20024;-82
2021/10/25 06:06:30;;;;;;;100.93;48.03;;;;;;;1.41;68.66;99521.34;5087758;28;20028;-74
2021/10/25 06:08:55;;;;;;;85.05;43.05;;;;;;;1.44;68.34;99529.03;5109964;28;20031;-75
2021/10/25 06:11:21;;;;;;;94.57;46.17;;;;;;;1.51;68.77;99531.75;5087591;28;20086;-75
2021/10/25 06:13:46;;;;;;;83.60;43.00;;;;;;;1.58;68.75;99527.16;5070304;28;20024;-75
2021/10/25 06:16:17;;;;;;;95.68;47.83;;;;;;;1.61;68.85;99532.16;5089364;28;20035;-75
2021/10/25 06:18:44;;;;;;;126.30;58.55;;;;;;;1.66;68.77;99533.34;5086905;28;20036;-75
2021/10/25 06:21:10;;;;;;;113.50;53.55;;;;;;;1.70;68.18;99534.59;5087358;28;20107;-74
2021/10/25 06:23:36;;;;;;;142.32;64.07;;;;;;;1.69;68.33;99532.94;5088886;28;20044;-75
2021/10/25 06:26:03;;;;;;;156.35;70.90;;;;;;;1.64;68.19;99536.28;5098031;28;20052;-75
2021/10/25 06:28:29;;;;;;;209.13;92.22;;;;;;;1.58;67.78;99539.81;5100174;28;20510;-74
2021/10/25 06:31:04;;;;;;;249.60;99.55;;;;;;;1.55;67.89;99532.13;5089331;28;20020;-74
2021/10/25 06:33:36;;;;;;;249.80;99.25;;;;;;;1.53;67.63;99540.47;5073831;28;20036;-74
2021/10/25 06:36:04;;;;;;;218.70;87.13;;;;;;;1.52;67.63;99537.97;5090917;28;20049;-74
2021/10/25 06:38:44;;;;;;;189.15;80.78;;;;;;;1.53;67.97;99539.63;5072926;28;20031;-74
2021/10/25 06:41:10;;;;;;;172.57;72.73;;;;;;;1.53;67.88;99535.06;5092497;28;20054;-75
2021/10/25 06:43:35;;;;;;;158.68;69.20;;;;;;;1.55;68.07;99537.53;5092000;28;20407;-74
2021/10/25 06:46:01;;;;;;;157.80;70.38;;;;;;;1.55;68.32;99548.34;5086452;28;20132;-75
2021/10/25 06:48:28;;;;;;;157.25;71.85;;;;;;;1.56;67.83;99553.56;5079792;28;20028;-75
2021/10/25 06:50:54;;;;;;;162.48;71.95;;;;;;;1.61;68.30;99542.97;5075558;28;20023;-72
2021/10/25 06:53:19;;;;;;;151.40;65.15;;;;;;;1.62;68.57;99544.63;5094463;28;20032;-74
2021/10/25 06:55:46;;;;;;;153.98;63.72;;;;;;;1.68;68.23;99550.19;5098779;28;20028;-74
2021/10/25 06:58:12;;;;;;;163.77;66.35;;;;;;;1.73;68.96;99545.84;5113722;28;20024;-74
2021/10/25 07:00:38;;;;;;;173.95;72.45;;;;;;;1.83;68.83;99556.22;5097962;28;20031;-74
2021/10/25 07:03:03;;;;;;;199.45;80.07;;;;;;;1.93;68.57;99545.78;5093723;28;20028;-72
2021/10/25 07:05:33;;;;;;;247.30;95.90;;;;;;;2.03;68.40;99553.47;5095203;28;20389;-73
2021/10/25 07:07:58;;;;;;;275.80;102.03;;;;;;;2.10;68.35;99544.50;5103358;28;20058;-70
2021/10/25 07:10:24;;;;;;;194.82;85.20;;;;;;;2.20;69.18;99542.16;5085348;28;20403;-73
2021/10/25 07:12:49;;;;;;;161.85;72.05;;;;;;;2.29;69.21;99540.84;5096879;28;20040;-73
2021/10/25 07:15:17;;;;;;;150.23;66.38;;;;;;;2.40;68.77;99536.66;5086007;28;20046;-73
2021/10/25 08:01:31;;;;;;;42.60;18.45;;;;;;;5.01;67.31;99497.00;5082268;28;20043;-73
2021/10/25 08:12:20;;;;;;;34.60;16.25;;;;;;;5.48;66.22;99471.69;5082694;28;20097;-73
2021/10/25 08:14:50;;;;;;;34.53;15.98;;;;;;;5.60;66.28;99481.75;5084556;28;20017;-74
2021/10/25 08:17:19;;;;;;;33.78;15.18;;;;;;;5.70;66.13;99481.16;5088821;28;20036;-74
2021/10/25 08:19:45;;;;;;;29.98;14.85;;;;;;;5.78;65.82;99470.72;5070667;28;20066;-75
2021/10/25 08:22:14;;;;;;;32.03;15.60;;;;;;;5.87;66.00;99473.91;5068750;28;20035;-75
2021/10/25 08:24:43;;;;;;;36.97;18.00;;;;;;;6.00;65.88;99471.97;5090781;28;20043;-72
2021/10/25 08:27:09;;;;;;;34.20;15.73;;;;;;;6.08;65.54;99474.34;5087802;28;20049;-73
2021/10/25 08:29:36;;;;;;;23.33;12.60;;;;;;;6.19;64.64;99475.38;5081961;28;20504;-74
2021/10/25 08:39:46;;;;;;;17.88;8.40;;;;;;;6.57;63.57;99463.00;5077546;28;20039;-76
2021/10/25 08:42:13;;;;;;;24.63;12.15;;;;;;;6.67;63.96;99460.47;5081934;28;20074;-77
2021/10/25 08:44:39;;;;;;;22.65;9.20;;;;;;;6.75;63.19;99458.41;5088459;28;20548;-75
2021/10/25 08:47:05;;;;;;;27.92;9.25;;;;;;;6.84;63.48;99455.03;5090048;28;20151;-76
2021/10/25 08:49:31;;;;;;;17.63;8.40;;;;;;;6.94;63.37;99461.72;5086511;28;20432;-75
2021/10/25 08:51:56;;;;;;;18.45;8.27;;;;;;;7.05;63.37;99458.09;5079460;28;20042;-76
2021/10/25 08:54:22;;;;;;;16.83;7.53;;;;;;;7.13;62.93;99463.13;5089454;28;20040;-77
2021/10/25 08:56:49;;;;;;;19.17;7.68;;;;;;;7.24;63.08;99466.00;5092803;28;20027;-77
2021/10/25 08:59:14;;;;;;;18.35;7.20;;;;;;;7.32;62.40;99465.59;5090173;28;20047;-81
2021/10/25 09:01:40;;;;;;;14.90;6.80;;;;;;;7.40;62.09;99459.72;5091586;28;20028;-83
2021/10/25 09:04:11;;;;;;;16.08;7.95;;;;;;;7.49;61.95;99457.38;5087319;28;20028;-79
2021/10/25 09:06:54;;;;;;;11.43;5.68;;;;;;;7.60;61.24;99458.34;5090533;28;20107;-82
2021/10/25 09:09:20;;;;;;;12.80;6.10;;;;;;;7.68;60.74;99457.91;5082771;28;20021;-82
2021/10/25 09:12:15;;;;;;;16.30;7.13;;;;;;;7.73;60.38;99452.53;5071020;28;20411;-77
2021/10/25 09:14:41;;;;;;;11.95;6.03;;;;;;;7.80;58.82;99452.31;5075688;28;20051;-74
2021/10/25 09:17:09;;;;;;;13.57;7.20;;;;;;;7.85;59.20;99446.13;5106018;28;20032;-78
2021/10/25 09:19:37;;;;;;;12.35;5.70;;;;;;;7.90;58.31;99435.25;5077772;28;20020;-78
2021/10/25 09:22:07;;;;;;;11.68;5.47;;;;;;;7.97;57.09;99435.88;5088965;28;20017;-78
2021/10/25 09:24:32;;;;;;;;;;;;;;;8.03;58.00;99437.59;5084117;28;20024;-75
2021/10/25 09:27:01;;;;;;;13.55;6.55;;;;;;;8.10;57.08;99425.63;5088115;28;20281;-79
2021/10/25 09:29:30;;;;;;;11.88;5.72;;;;;;;8.14;57.31;99424.06;5089545;28;20084;-81
2021/10/25 09:31:57;;;;;;;14.27;6.80;;;;;;;8.22;57.50;99425.50;5081582;28;20031;-78
2021/10/25 09:34:49;;;;;;;14.43;6.18;;;;;;;8.32;57.33;99431.06;5088993;28;20033;-79
2021/10/25 09:37:21;;;;;;;15.52;6.28;;;;;;;8.40;57.48;99421.56;5083581;28;20036;-80
2021/10/25 09:42:49;;;;;;;12.55;5.82;;;;;;;8.57;57.16;99416.03;5090572;28;20033;-80
2021/10/25 09:50:59;;;;;;;14.98;6.60;;;;;;;8.75;54.37;99414.84;5086172;28;20090;-78
2021/10/25 09:53:45;;;;;;;16.73;7.15;;;;;;;8.79;55.62;99410.47;5087250;28;20032;-80
2021/10/25 09:56:13;;;;;;;16.38;7.15;;;;;;;8.86;56.42;99411.09;5070417;28;20054;-80
2021/10/25 09:59:30;;;;;;;19.67;7.55;;;;;;;8.92;55.46;99412.78;5062293;28;20039;-78
2021/10/25 10:01:35;;;;;;;15.15;6.28;;;;;;;9.01;54.45;99412.28;5089610;28;20032;-80
2021/10/25 10:04:00;;;;;;;16.08;6.97;;;;;;;9.09;54.82;99409.88;5090667;28;20024;-79
2021/10/25 10:06:25;;;;;;;22.75;8.27;;;;;;;9.17;54.68;99405.81;5095396;28;20502;-81
2021/10/25 10:08:51;;;;;;;20.45;10.00;;;;;;;9.28;53.13;99411.38;5071212;28;20021;-75
2021/10/25 10:11:18;;;;;;;28.35;12.25;;;;;;;9.33;52.54;99404.03;5096939;28;20067;-78
2021/10/25 10:13:45;;;;;;;18.52;7.32;;;;;;;9.41;52.10;99408.19;5098609;28;20059;-79
2021/10/25 10:16:12;;;;;;;17.50;7.10;;;;;;;9.45;51.39;99403.81;5070230;28;20416;-79
2021/10/25 10:18:44;;;;;;;16.75;6.45;;;;;;;9.56;50.92;99395.66;5087073;28;20106;-74
2021/10/25 10:21:13;;;;;;;18.10;7.60;;;;;;;9.66;50.99;99393.78;5084444;28;20026;-78
2021/10/25 10:23:42;;;;;;;22.10;8.15;;;;;;;9.77;51.25;99399.31;5067839;28;20024;-77
2021/10/25 10:26:13;;;;;;;20.52;8.27;;;;;;;9.87;51.80;99399.34;5094637;28;20023;-75
2021/10/25 10:28:44;;;;;;;18.13;7.93;;;;;;;9.95;52.34;99392.53;5091323;28;20023;-75
2021/10/25 10:31:26;;;;;;;20.65;8.77;;;;;;;10.04;52.65;99377.19;5092765;28;20485;-75
2021/10/25 10:33:54;;;;;;;19.48;9.55;;;;;;;10.12;52.05;99370.38;5092300;28;20028;-76
2021/10/25 10:36:34;;;;;;;20.83;9.27;;;;;;;10.21;49.96;99376.97;5084378;28;20060;-76
2021/10/25 10:39:09;;;;;;;20.55;7.82;;;;;;;10.31;51.65;99370.69;5081990;28;20031;-75
2021/10/25 10:41:41;;;;;;;19.45;7.93;;;;;;;10.42;51.31;99371.56;5080540;28;20028;-75
2021/10/25 10:44:14;;;;;;;22.63;10.48;;;;;;;10.53;51.52;99370.47;5101204;28;20028;-75
2021/10/25 10:46:45;;;;;;;20.55;9.48;;;;;;;10.60;50.59;99364.69;5090160;28;20384;-76
2021/10/25 10:49:44;;;;;;;15.43;6.75;;;;;;;10.71;51.04;99365.50;5085117;28;20035;-76
2021/10/25 10:55:04;;;;;;;26.58;9.32;;;;;;;10.87;48.98;99364.41;5101384;28;20051;-79
2021/10/25 11:00:23;;;;;;;21.88;8.40;;;;;;;11.07;49.54;99354.50;5092544;28;20073;-75
2021/10/25 11:02:59;;;;;;;18.35;8.25;;;;;;;11.16;49.34;99358.31;5079632;28;20551;-76
2021/10/25 11:05:37;;;;;;;19.05;8.82;;;;;;;11.25;49.46;99355.03;5090230;28;20028;-76
2021/10/25 11:08:11;;;;;;;21.92;9.75;;;;;;;11.37;49.43;99343.72;5093776;28;20055;-79
2021/10/25 11:10:38;;;;;;;19.83;7.53;;;;;;;11.46;49.17;99345.59;5104786;28;20479;-76
2021/10/25 11:13:08;;;;;;;13.20;6.15;;;;;;;11.53;47.79;99359.06;5092850;28;20098;-76
2021/10/25 11:15:40;;;;;;;13.43;7.10;;;;;;;11.56;47.54;99347.50;5090486;28;20500;-79
2021/10/25 11:18:06;;;;;;;11.20;5.68;;;;;;;11.60;46.65;99348.59;5111806;28;20058;-78
2021/10/25 11:20:34;;;;;;;14.68;6.82;;;;;;;11.68;45.52;99351.84;5093245;28;20058;-79
2021/10/25 11:23:06;;;;;;;16.52;7.72;;;;;;;11.74;46.35;99340.56;5111378;28;20034;-78
2021/10/25 11:25:44;;;;;;;14.27;6.95;;;;;;;11.81;46.18;99343.00;5084191;28;20027;-76
2021/10/25 11:28:18;;;;;;;11.10;5.68;;;;;;;11.88;45.69;99339.91;5091176;28;20047;-77
2021/10/25 11:30:44;;;;;;;11.13;5.47;;;;;;;11.94;45.11;99337.97;5090828;28;20020;-76
2021/10/25 11:33:10;;;;;;;14.80;6.95;;;;;;;11.98;45.79;99333.56;5089475;28;20024;-76
2021/10/25 11:35:48;;;;;;;13.30;6.20;;;;;;;12.09;46.35;99328.84;5103791;28;20023;-76
2021/10/25 11:38:14;;;;;;;14.25;5.88;;;;;;;12.18;45.96;99330.69;5100918;28;20119;-78
2021/10/25 11:40:39;;;;;;;16.83;6.38;;;;;;;12.27;46.04;99319.09;5100362;28;20023;-77
2021/10/25 11:43:05;;;;;;;13.20;5.43;;;;;;;12.40;44.49;99321.22;5067783;28;20027;-76
2021/10/25 11:45:32;;;;;;;12.77;5.70;;;;;;;12.45;45.38;99307.38;5085462;28;20037;-78
2021/10/25 11:47:58;;;;;;;9.73;4.60;;;;;;;12.51;43.58;99308.97;5088991;28;20027;-77
2021/10/25 11:50:26;;;;;;;11.45;5.32;;;;;;;12.58;44.44;99311.44;5088583;28;20533;-78
2021/10/25 11:52:56;;;;;;;12.88;6.05;;;;;;;12.63;44.26;99300.34;5087346;28;20031;-75
2021/10/25 11:55:25;;;;;;;11.43;5.80;;;;;;;12.71;42.96;99300.84;5082445;28;20059;-77
2021/10/25 11:57:54;;;;;;;12.88;7.20;;;;;;;12.77;44.87;99289.50;5085378;28;20036;-76
2021/10/25 12:00:22;;;;;;;14.87;6.60;;;;;;;12.87;44.81;99290.50;5068649;28;20051;-78
2021/10/25 12:02:47;;;;;;;11.38;5.18;;;;;;;12.93;43.06;99281.06;5087420;28;20158;-77
2021/10/25 12:05:24;;;;;;;11.00;5.28;;;;;;;12.99;44.33;99282.66;5088340;28;20119;-76
2021/10/25 12:07:55;;;;;;;10.25;4.88;;;;;;;13.10;44.65;99284.19;5071562;28;20126;-86
2021/10/25 12:10:23;;;;;;;13.82;5.78;;;;;;;13.20;43.78;99285.19;5087637;28;20054;-81
2021/10/25 12:12:56;;;;;;;12.45;4.60;;;;;;;13.28;43.64;99272.72;5088469;28;20024;-77
2021/10/25 12:15:24;;;;;;;7.45;4.50;;;;;;;13.36;43.77;99274.81;5089871;28;20024;-78
2021/10/25 12:17:50;;;;;;;10.35;5.03;;;;;;;13.41;43.74;99263.75;5084357;28;20023;-79
2021/10/25 12:20:25;;;;;;;10.50;4.35;;;;;;;13.53;43.55;99264.13;5081773;28;20505;-78
2021/10/25 12:23:08;;;;;;;8.57;4.03;;;;;;;13.63;42.81;99265.94;5068681;28;20049;-78
2021/10/25 12:25:36;;;;;;;10.82;4.40;;;;;;;13.72;42.44;99260.59;5069727;28;20092;-79
2021/10/25 12:28:20;;;;;;;9.82;4.10;;;;;;;13.83;43.04;99255.72;5092399;28;20158;-80
2021/10/25 12:30:50;;;;;;;8.00;4.20;;;;;;;13.95;43.43;99260.78;5101669;28;20038;-77
2021/10/25 12:33:21;;;;;;;11.05;4.93;;;;;;;14.08;42.78;99256.44;5089689;28;20435;-77
2021/10/25 12:35:48;;;;;;;10.70;5.50;;;;;;;14.20;42.69;99243.03;5077179;28;20031;-76
2021/10/25 12:38:18;;;;;;;11.75;4.95;;;;;;;14.39;43.04;99247.69;5089682;28;20032;-77
2021/10/25 12:40:48;;;;;;;10.65;4.70;;;;;;;14.55;42.39;99245.47;5088991;28;20027;-79
2021/10/25 12:43:16;;;;;;;11.02;4.43;;;;;;;14.72;41.33;99239.41;5068241;28;20058;-74
2021/10/25 12:45:44;;;;;;;10.93;3.50;;;;;;;15.14;41.17;99239.41;5087173;28;20079;-76
2021/10/25 12:48:12;;;;;;;8.07;3.60;;;;;;;16.95;40.29;99229.59;5085655;28;20032;-82
2021/10/25 12:50:41;;;;;;;6.88;4.43;;;;;;;18.72;34.82;99220.22;5099969;28;20049;-77
2021/10/25 12:53:09;;;;;;;10.55;4.22;;;;;;;19.60;32.71;99222.56;5094623;28;20034;-79
2021/10/25 12:55:36;;;;;;;5.13;3.05;;;;;;;19.93;32.03;99225.44;5094704;28;20400;-79
2021/10/25 12:58:06;;;;;;;10.80;3.75;;;;;;;20.12;33.45;99210.22;5082268;28;20032;-80
2021/10/25 13:00:32;;;;;;;7.07;3.58;;;;;;;20.30;32.73;99207.25;5083816;28;20040;-79
2021/10/25 13:02:58;;;;;;;7.35;3.70;;;;;;;20.29;30.62;99205.63;5091435;28;20077;-84
2021/10/25 13:05:23;;;;;;;6.72;3.25;;;;;;;20.16;30.73;99200.03;5086221;28;20426;-77
2021/10/25 13:07:52;;;;;;;6.13;3.80;;;;;;;20.17;32.74;99196.09;5094817;28;20114;-80
2021/10/25 13:10:23;;;;;;;7.53;3.92;;;;;;;20.35;32.84;99190.31;5094220;28;20020;-80
2021/10/25 13:12:50;;;;;;;7.15;4.20;;;;;;;20.55;31.88;99193.41;5085166;28;20396;-82
2021/10/25 13:15:16;;;;;;;11.60;6.35;;;;;;;20.95;31.82;99192.78;5087151;28;20024;-78
2021/10/25 13:17:42;;;;;;;9.32;4.55;;;;;;;21.53;28.69;99180.63;5096827;28;20467;-78